createdAt,value
2023-09-01T00:01:23.946Z,92.20
2023-09-01T00:04:15.688Z,92.30
2023-09-01T00:06:42.567Z,92.30
2023-09-01T00:09:10.108Z,92.30
2023-09-01T00:11:37.160Z,92.40
2023-09-01T00:14:05.249Z,92.50
2023-09-01T00:16:32.272Z,92.50
2023-09-01T00:18:59.247Z,92.60
2023-09-01T00:21:26.241Z,92.60
2023-09-01T00:23:53.258Z,92.70
2023-09-01T00:26:20.195Z,92.70
2023-09-01T00:28:48.789Z,92.70
2023-09-01T00:31:18.765Z,92.80
2023-09-01T00:33:45.916Z,92.80
2023-09-01T00:36:12.856Z,92.80
2023-09-01T00:38:40.606Z,92.70
2023-09-01T00:41:08.099Z,92.70
2023-09-01T00:43:35.671Z,92.70
2023-09-01T00:46:02.904Z,92.80
2023-09-01T00:48:30.200Z,92.80
2023-09-01T00:50:57.296Z,92.80
2023-09-01T00:53:24.822Z,92.90
2023-09-01T00:55:52.624Z,93.00
2023-09-01T00:58:20.180Z,93.10
2023-09-01T01:00:47.484Z,93.20
2023-09-01T01:03:15.447Z,93.20
2023-09-01T01:05:48.605Z,93.20
2023-09-01T01:08:34.095Z,93.20
2023-09-01T01:11:10.601Z,93.30
2023-09-01T01:13:44.255Z,93.30
2023-09-01T01:16:13.648Z,93.30
2023-09-01T01:18:42.589Z,93.30
2023-09-01T01:21:22.765Z,93.40
2023-09-01T01:23:53.263Z,93.40
2023-09-01T01:26:20.997Z,93.40
2023-09-01T01:28:48.001Z,93.40
2023-09-01T01:31:15.059Z,93.40
2023-09-01T01:34:00.428Z,93.40
2023-09-01T01:36:41.735Z,93.50
2023-09-01T01:39:19.143Z,93.50
2023-09-01T01:41:55.281Z,93.50
2023-09-01T01:44:27.698Z,93.60
2023-09-01T01:46:55.402Z,93.50
2023-09-01T01:49:22.395Z,93.50
2023-09-01T01:51:50.563Z,93.50
2023-09-01T01:54:17.716Z,93.40
2023-09-01T01:56:45.237Z,93.40
2023-09-01T01:59:12.722Z,93.40
2023-09-01T02:01:39.841Z,93.40
2023-09-01T02:04:07.253Z,93.40
2023-09-01T02:06:34.291Z,93.50
2023-09-01T02:09:01.315Z,93.50
2023-09-01T02:11:28.385Z,93.60
2023-09-01T02:13:55.293Z,93.60
2023-09-01T02:16:25.374Z,93.60
2023-09-01T02:18:52.418Z,93.90
2023-09-01T02:21:22.496Z,93.60
2023-09-01T02:23:50.038Z,93.50
2023-09-01T02:26:21.303Z,93.50
2023-09-01T02:28:50.461Z,93.40
2023-09-01T02:31:18.491Z,93.40
2023-09-01T02:33:45.689Z,93.40
2023-09-01T02:36:28.318Z,93.40
2023-09-01T02:38:55.777Z,93.40
2023-09-01T02:41:24.346Z,93.40
2023-09-01T02:43:51.769Z,93.40
2023-09-01T02:46:18.997Z,93.40
2023-09-01T02:48:46.480Z,93.40
2023-09-01T02:51:13.538Z,93.30
2023-09-01T02:53:40.658Z,93.40
2023-09-01T02:56:08.711Z,93.50
2023-09-01T02:58:37.062Z,93.60
2023-09-01T03:01:11.357Z,93.60
2023-09-01T03:03:41.665Z,93.60
2023-09-01T03:06:12.073Z,93.80
2023-09-01T03:08:40.803Z,93.40
2023-09-01T03:11:07.871Z,93.30
2023-09-01T03:13:34.941Z,93.10
2023-09-01T03:16:05.164Z,93.00
2023-09-01T03:18:33.299Z,92.90
2023-09-01T03:21:11.644Z,92.80
2023-09-01T03:23:39.165Z,92.70
2023-09-01T03:26:10.050Z,92.60
2023-09-01T03:28:37.182Z,92.50
2023-09-01T03:31:10.788Z,92.50
2023-09-01T03:33:39.723Z,92.50
2023-09-01T03:36:09.052Z,92.50
2023-09-01T03:38:37.310Z,92.50
2023-09-01T03:41:05.719Z,92.50
2023-09-01T03:43:33.464Z,92.50
2023-09-01T03:46:00.754Z,92.40
2023-09-01T03:48:28.142Z,92.40
2023-09-01T03:51:12.458Z,92.40
2023-09-01T03:53:40.198Z,92.50
2023-09-01T03:56:09.874Z,92.50
2023-09-01T03:58:41.794Z,92.50
2023-09-01T04:01:10.591Z,92.60
2023-09-01T04:03:37.778Z,92.60
2023-09-01T04:06:06.346Z,92.50
2023-09-01T04:08:34.044Z,92.60
2023-09-01T04:11:01.268Z,92.60
2023-09-01T04:13:28.279Z,92.50
2023-09-01T04:15:57.030Z,92.50
2023-09-01T04:18:25.582Z,92.50
2023-09-01T04:20:54.488Z,92.40
2023-09-01T04:23:22.141Z,92.20
2023-09-01T04:25:49.843Z,92.20
2023-09-01T04:28:21.101Z,92.20
2023-09-01T04:30:49.384Z,92.30
2023-09-01T04:33:17.049Z,92.30
2023-09-01T04:35:44.557Z,92.30
2023-09-01T04:38:11.635Z,92.40
2023-09-01T04:40:39.216Z,92.60
2023-09-01T04:43:06.311Z,92.20
2023-09-01T04:45:33.303Z,92.10
2023-09-01T04:48:00.734Z,92.20
2023-09-01T04:50:29.590Z,92.20
2023-09-01T04:52:56.584Z,92.20
2023-09-01T04:55:23.588Z,92.30
2023-09-01T04:57:50.636Z,92.30
2023-09-01T05:00:18.190Z,92.40
2023-09-01T05:02:47.289Z,92.40
2023-09-01T05:05:15.110Z,92.50
2023-09-01T05:07:43.324Z,92.50
2023-09-01T05:10:11.296Z,92.50
2023-09-01T05:12:38.614Z,92.40
2023-09-01T05:15:06.623Z,92.40
2023-09-01T05:17:33.623Z,92.40
2023-09-01T05:20:00.772Z,92.30
2023-09-01T05:22:28.147Z,92.30
2023-09-01T05:24:55.209Z,92.30
2023-09-01T05:27:22.210Z,92.30
2023-09-01T05:29:49.954Z,92.30
2023-09-01T05:32:17.378Z,92.20
2023-09-01T05:34:44.772Z,92.10
2023-09-01T05:37:15.394Z,92.10
2023-09-01T05:39:43.684Z,92.00
2023-09-01T05:42:11.699Z,91.90
2023-09-01T05:44:38.974Z,91.80
2023-09-01T05:47:06.243Z,91.60
2023-09-01T05:49:34.777Z,91.30
2023-09-01T05:52:02.879Z,91.00
2023-09-01T05:54:30.167Z,90.70
2023-09-01T05:56:57.157Z,90.50
2023-09-01T05:59:24.090Z,90.40
2023-09-01T06:01:51.106Z,90.20
2023-09-01T06:04:18.115Z,90.00
2023-09-01T06:06:45.148Z,89.30
2023-09-01T06:09:12.855Z,88.30
2023-09-01T06:11:40.719Z,87.50
2023-09-01T06:14:07.720Z,86.50
2023-09-01T06:16:34.769Z,85.70
2023-09-01T06:19:02.278Z,85.40
2023-09-01T06:21:29.217Z,85.10
2023-09-01T06:23:56.305Z,85.20
2023-09-01T06:26:23.315Z,84.20
2023-09-01T06:28:50.611Z,83.90
2023-09-01T06:31:18.191Z,83.50
2023-09-01T06:33:47.956Z,83.20
2023-09-01T06:36:15.089Z,83.00
2023-09-01T06:38:42.572Z,82.60
2023-09-01T06:41:10.314Z,82.10
2023-09-01T06:43:38.060Z,82.10
2023-09-01T06:46:05.299Z,81.80
2023-09-01T06:48:32.769Z,81.40
2023-09-01T06:51:01.028Z,81.00
2023-09-01T06:53:28.544Z,80.80
2023-09-01T06:55:55.546Z,80.50
2023-09-01T06:58:22.583Z,79.80
2023-09-01T07:00:52.729Z,79.50
2023-09-01T07:03:21.130Z,79.00
2023-09-01T07:05:59.216Z,78.50
2023-09-01T07:08:29.691Z,78.20
2023-09-01T07:11:11.304Z,77.80
2023-09-01T07:13:38.598Z,77.30
2023-09-01T07:16:07.209Z,77.00
2023-09-01T07:18:34.700Z,77.00
2023-09-01T07:21:01.975Z,77.20
2023-09-01T07:23:29.189Z,77.00
2023-09-01T07:25:56.881Z,76.90
2023-09-01T14:23:44.058Z,51.30
2023-09-01T14:26:12.561Z,51.70
2023-09-01T14:28:39.757Z,51.60
2023-09-01T14:31:07.338Z,51.50
2023-09-01T14:33:46.177Z,51.90
2023-09-01T14:36:15.197Z,51.90
2023-09-01T14:38:42.341Z,51.60
2023-09-01T14:41:15.437Z,51.50
2023-09-01T14:43:42.732Z,51.20
2023-09-01T14:46:09.943Z,51.70
2023-09-01T14:48:37.379Z,51.50
2023-09-01T14:51:04.688Z,51.10
2023-09-01T14:53:32.340Z,51.90
2023-09-01T14:55:59.863Z,51.80
2023-09-01T14:58:27.003Z,52.20
2023-09-01T15:01:03.427Z,52.10
2023-09-01T15:03:31.829Z,51.60
2023-09-01T15:05:59.738Z,51.00
2023-09-01T15:08:26.746Z,50.50
2023-09-01T15:10:55.787Z,50.30
2023-09-01T15:13:23.974Z,50.50
2023-09-01T15:15:51.024Z,51.00
2023-09-01T15:18:18.008Z,50.60
2023-09-01T15:20:45.008Z,50.70
2023-09-01T15:23:12.282Z,50.80
2023-09-01T15:25:41.141Z,51.10
2023-09-01T15:28:08.569Z,51.00
2023-09-01T15:30:35.550Z,51.50
2023-09-01T15:33:02.925Z,51.60
2023-09-01T15:35:34.614Z,51.40
2023-09-01T15:38:02.998Z,51.70
2023-09-01T15:40:30.154Z,51.90
2023-09-01T15:42:57.676Z,51.40
2023-09-01T15:45:25.009Z,52.10
2023-09-01T15:47:52.162Z,52.20
2023-09-01T15:50:27.915Z,52.20
2023-09-01T15:53:02.418Z,52.20
2023-09-01T15:55:31.100Z,52.20
2023-09-01T15:57:58.670Z,52.90
2023-09-01T16:00:25.875Z,53.20
2023-09-01T16:02:53.602Z,54.00
2023-09-01T16:05:20.698Z,53.10
2023-09-01T16:07:48.002Z,53.20
2023-09-01T16:10:15.134Z,53.00
2023-09-01T16:12:43.212Z,53.00
2023-09-01T16:15:10.701Z,53.30
2023-09-01T16:17:37.727Z,53.60
2023-09-01T16:20:05.883Z,53.20
2023-09-01T16:22:32.861Z,54.00
2023-09-01T16:25:00.015Z,54.40
2023-09-01T16:27:28.751Z,54.10
2023-09-01T16:29:55.942Z,54.10
2023-09-01T16:32:23.228Z,54.50
2023-09-01T16:34:50.393Z,55.20
2023-09-01T16:37:17.472Z,55.40
2023-09-01T16:39:44.618Z,55.50
2023-09-01T16:42:11.856Z,55.90
2023-09-01T16:44:38.843Z,56.50
2023-09-01T16:47:05.816Z,56.70
2023-09-01T16:49:32.795Z,57.10
2023-09-01T16:51:59.878Z,57.10
2023-09-01T16:54:27.269Z,57.50
2023-09-01T16:56:54.377Z,57.70
2023-09-01T16:59:21.532Z,57.70
2023-09-01T17:01:48.606Z,57.70
2023-09-01T17:04:15.781Z,57.70
2023-09-01T17:06:42.888Z,57.80
2023-09-01T17:09:09.870Z,57.20
2023-09-01T17:11:37.095Z,56.60
2023-09-01T17:14:04.216Z,56.70
2023-09-01T17:16:31.266Z,56.80
2023-09-01T17:18:58.386Z,57.10
2023-09-01T17:21:25.645Z,57.20
2023-09-01T17:23:52.639Z,57.50
2023-09-01T17:26:20.210Z,58.10
2023-09-01T17:28:48.141Z,58.50
2023-09-01T17:31:15.223Z,59.00
2023-09-01T17:33:42.915Z,59.40
2023-09-01T17:36:10.910Z,60.00
2023-09-01T17:38:38.981Z,60.50
2023-09-01T17:41:07.539Z,61.00
2023-09-01T17:43:35.191Z,61.60
2023-09-01T17:46:03.027Z,62.00
2023-09-01T17:48:31.207Z,62.30
2023-09-01T17:50:58.359Z,62.70
2023-09-01T17:53:25.845Z,63.10
2023-09-01T17:55:53.123Z,63.80
2023-09-01T17:58:20.434Z,64.20
2023-09-01T18:00:50.834Z,64.60
2023-09-01T18:03:19.546Z,64.80
2023-09-01T18:05:47.387Z,65.20
2023-09-01T18:08:14.948Z,65.60
2023-09-01T18:10:42.645Z,65.60
2023-09-01T18:13:11.328Z,65.90
2023-09-01T18:15:39.804Z,66.20
2023-09-01T18:18:07.152Z,66.20
2023-09-01T18:20:35.066Z,66.00
2023-09-01T18:23:04.399Z,65.90
2023-09-01T18:25:35.228Z,65.80
2023-09-01T18:28:03.276Z,66.00
2023-09-01T18:30:30.847Z,66.40
2023-09-01T18:33:06.869Z,66.80
2023-09-01T18:35:35.466Z,67.30
2023-09-01T18:38:04.100Z,67.80
2023-09-01T18:40:34.405Z,68.90
2023-09-01T18:43:01.861Z,69.70
2023-09-01T18:45:35.242Z,69.90
2023-09-01T18:48:10.089Z,70.00
2023-09-01T18:50:43.674Z,70.00
2023-09-01T18:53:11.425Z,69.70
2023-09-01T18:55:43.569Z,69.80
2023-09-01T18:58:14.487Z,70.10
2023-09-01T19:00:43.930Z,70.40
2023-09-01T19:03:11.578Z,70.50
2023-09-01T19:05:41.952Z,70.70
2023-09-01T19:08:24.770Z,71.00
2023-09-01T19:10:54.860Z,71.50
2023-09-01T19:13:25.062Z,71.60
2023-09-01T19:16:00.798Z,71.80
2023-09-01T19:18:35.180Z,72.20
2023-09-01T19:21:03.099Z,72.60
2023-09-01T19:23:32.255Z,72.60
2023-09-01T19:26:04.022Z,72.60
2023-09-01T19:28:37.889Z,72.70
2023-09-01T19:31:07.899Z,72.80
2023-09-01T19:33:41.152Z,73.10
2023-09-01T19:36:23.037Z,73.20
2023-09-01T19:38:52.629Z,73.60
2023-09-01T19:41:20.601Z,73.60
2023-09-01T19:43:49.096Z,73.80
2023-09-01T19:46:16.812Z,74.00
2023-09-01T19:48:44.632Z,74.10
2023-09-01T19:51:11.893Z,74.40
2023-09-01T19:53:41.792Z,74.60
2023-09-01T19:56:12.213Z,74.80
2023-09-01T19:58:57.234Z,75.10
2023-09-01T20:01:26.356Z,75.20
2023-09-01T20:03:54.486Z,75.20
2023-09-01T20:06:26.146Z,75.40
2023-09-01T20:08:54.673Z,75.60
2023-09-01T20:11:23.468Z,75.70
2023-09-01T20:13:51.946Z,75.70
2023-09-01T20:16:32.568Z,75.90
2023-09-01T20:19:29.008Z,76.30
2023-09-01T20:21:57.838Z,76.50
2023-09-01T20:24:24.945Z,76.40
2023-09-01T20:26:52.022Z,76.50
2023-09-01T20:29:20.932Z,76.60
2023-09-01T20:31:48.239Z,76.80
2023-09-01T20:34:15.168Z,77.00
2023-09-01T20:36:43.118Z,77.30
2023-09-01T20:39:10.025Z,77.50
2023-09-01T20:41:37.098Z,77.80
2023-09-01T20:44:04.222Z,78.10
2023-09-01T20:46:31.502Z,78.30
2023-09-01T20:48:58.496Z,78.60
2023-09-01T20:51:25.737Z,78.70
2023-09-01T20:53:52.802Z,79.00
2023-09-01T20:56:20.433Z,79.10
2023-09-01T20:58:47.415Z,79.90
2023-09-01T21:01:16.655Z,79.40
2023-09-01T21:03:43.779Z,79.60
2023-09-01T21:06:10.961Z,79.70
2023-09-01T21:08:39.094Z,80.00
2023-09-01T21:11:06.506Z,80.10
2023-09-01T21:13:34.124Z,80.20
2023-09-01T21:16:01.740Z,80.30
2023-09-01T21:18:28.990Z,80.40
2023-09-01T21:20:56.454Z,80.50
2023-09-01T21:23:23.503Z,80.50
2023-09-01T21:25:50.893Z,80.60
2023-09-01T21:28:18.048Z,80.60
2023-09-01T21:30:45.512Z,80.80
2023-09-01T21:33:12.685Z,81.10
2023-09-01T21:35:40.038Z,81.10
2023-09-01T21:38:07.054Z,81.10
2023-09-01T21:40:34.218Z,81.20
2023-09-01T21:43:01.416Z,81.20
2023-09-01T21:45:29.569Z,81.30
2023-09-01T21:47:56.815Z,81.40
2023-09-01T21:50:24.446Z,81.50
2023-09-01T21:52:51.570Z,81.60
2023-09-01T21:55:19.243Z,81.80
2023-09-01T21:57:47.503Z,82.20
2023-09-01T22:00:15.158Z,82.50
2023-09-01T22:02:42.453Z,82.60
2023-09-01T22:05:10.078Z,82.70
2023-09-01T22:07:37.346Z,82.70
2023-09-01T22:10:05.227Z,82.80
2023-09-01T22:12:32.938Z,82.80
2023-09-01T22:15:00.248Z,82.80
2023-09-01T22:17:27.584Z,82.90
2023-09-01T22:19:55.286Z,82.90
2023-09-01T22:22:22.923Z,83.00
2023-09-01T22:24:50.518Z,83.00
2023-09-01T22:27:17.666Z,83.10
2023-09-01T22:29:44.748Z,83.20
2023-09-01T22:32:12.217Z,83.20
2023-09-01T22:34:39.423Z,83.40
2023-09-01T22:37:06.827Z,83.40
2023-09-01T22:39:34.327Z,83.60
2023-09-01T22:42:02.115Z,83.70
2023-09-01T22:44:30.012Z,83.90
2023-09-01T22:46:58.021Z,84.00
2023-09-01T22:49:26.300Z,84.10
2023-09-01T22:51:53.840Z,84.20
2023-09-01T22:54:21.886Z,84.30
2023-09-01T22:56:49.485Z,84.30
2023-09-01T22:59:16.908Z,84.40
2023-09-01T23:01:44.867Z,84.50
2023-09-01T23:04:12.985Z,84.50
2023-09-01T23:06:40.706Z,84.60
2023-09-01T23:09:08.608Z,84.50
2023-09-01T23:11:35.830Z,84.60
2023-09-01T23:14:04.082Z,84.70
2023-09-01T23:16:33.420Z,84.80
2023-09-01T23:19:01.311Z,85.00
2023-09-01T23:21:29.251Z,85.10
2023-09-01T23:23:58.222Z,85.30
2023-09-01T23:26:26.296Z,85.30
2023-09-01T23:28:53.819Z,85.30
2023-09-01T23:31:21.945Z,85.60
2023-09-01T23:33:49.241Z,85.80
2023-09-01T23:36:16.426Z,86.00
2023-09-01T23:38:43.548Z,86.10
2023-09-01T23:41:10.836Z,86.10
2023-09-01T23:43:38.224Z,86.20
2023-09-01T23:46:05.526Z,86.30
2023-09-01T23:48:33.032Z,86.40
2023-09-01T23:51:01.029Z,86.60
2023-09-01T23:53:28.293Z,86.90
2023-09-01T23:55:55.535Z,87.00
2023-09-01T23:58:22.641Z,87.00
